sensor_id;sensor_type;location;lat;lon;timestamp;temperature;humidity
16402;DHT22;8310;44.626;11.176;2023-02-14T00:01:25;5.30;57.30
16402;DHT22;8310;44.626;11.176;2023-02-14T03:35:52;4.60;49.70
16402;DHT22;8310;44.626;11.176;2023-02-14T03:38:24;4.70;49.70
16402;DHT22;8310;44.626;11.176;2023-02-14T03:40:56;4.70;49.70
16402;DHT22;8310;44.626;11.176;2023-02-14T03:43:27;4.70;49.70
16402;DHT22;8310;44.626;11.176;2023-02-14T03:46:02;4.70;49.70
16402;DHT22;8310;44.626;11.176;2023-02-14T03:48:32;4.70;49.70
16402;DHT22;8310;44.626;11.176;2023-02-14T03:51:04;4.70;49.70
16402;DHT22;8310;44.626;11.176;2023-02-14T03:53:35;4.70;49.70
16402;DHT22;8310;44.626;11.176;2023-02-14T03:56:09;4.80;49.80
16402;DHT22;8310;44.626;11.176;2023-02-14T03:58:41;4.70;49.70
16402;DHT22;8310;44.626;11.176;2023-02-14T04:01:15;4.70;49.70
16402;DHT22;8310;44.626;11.176;2023-02-14T04:03:44;4.70;49.70
16402;DHT22;8310;44.626;11.176;2023-02-14T04:06:15;4.70;50.20
16402;DHT22;8310;44.626;11.176;2023-02-14T04:08:43;4.60;49.60
16402;DHT22;8310;44.626;11.176;2023-02-14T04:11:10;4.60;49.60
16402;DHT22;8310;44.626;11.176;2023-02-14T04:13:38;4.60;49.60
16402;DHT22;8310;44.626;11.176;2023-02-14T04:16:06;4.60;49.70
16402;DHT22;8310;44.626;11.176;2023-02-14T04:18:34;4.50;49.60
16402;DHT22;8310;44.626;11.176;2023-02-14T04:21:35;4.50;49.40
16402;DHT22;8310;44.626;11.176;2023-02-14T04:24:04;4.40;49.30
16402;DHT22;8310;44.626;11.176;2023-02-14T04:26:31;4.30;49.30
16402;DHT22;8310;44.626;11.176;2023-02-14T04:28:59;4.30;49.30
16402;DHT22;8310;44.626;11.176;2023-02-14T04:31:27;4.30;49.60
16402;DHT22;8310;44.626;11.176;2023-02-14T04:33:55;4.20;50.50
16402;DHT22;8310;44.626;11.176;2023-02-14T04:36:23;4.00;50.70
16402;DHT22;8310;44.626;11.176;2023-02-14T04:38:53;3.90;50.10
16402;DHT22;8310;44.626;11.176;2023-02-14T04:41:20;3.80;49.50
16402;DHT22;8310;44.626;11.176;2023-02-14T04:43:48;3.70;49.80
16402;DHT22;8310;44.626;11.176;2023-02-14T04:46:19;3.60;50.20
16402;DHT22;8310;44.626;11.176;2023-02-14T04:48:47;3.60;50.40
16402;DHT22;8310;44.626;11.176;2023-02-14T04:51:14;3.50;49.60
16402;DHT22;8310;44.626;11.176;2023-02-14T04:53:42;3.50;49.40
16402;DHT22;8310;44.626;11.176;2023-02-14T04:56:12;3.40;49.40
16402;DHT22;8310;44.626;11.176;2023-02-14T04:58:39;3.40;49.40
16402;DHT22;8310;44.626;11.176;2023-02-14T05:01:07;3.50;49.40
16402;DHT22;8310;44.626;11.176;2023-02-14T05:03:34;3.40;49.30
16402;DHT22;8310;44.626;11.176;2023-02-14T05:06:02;3.40;49.30
16402;DHT22;8310;44.626;11.176;2023-02-14T05:08:30;3.40;49.50
16402;DHT22;8310;44.626;11.176;2023-02-14T05:10:58;3.40;49.50
16402;DHT22;8310;44.626;11.176;2023-02-14T05:13:27;3.50;49.50
16402;DHT22;8310;44.626;11.176;2023-02-14T05:15:54;3.50;49.60
16402;DHT22;8310;44.626;11.176;2023-02-14T05:18:22;3.50;49.60
16402;DHT22;8310;44.626;11.176;2023-02-14T05:20:50;3.60;49.60
16402;DHT22;8310;44.626;11.176;2023-02-14T05:23:18;3.60;49.60
16402;DHT22;8310;44.626;11.176;2023-02-14T05:25:46;3.70;50.20
16402;DHT22;8310;44.626;11.176;2023-02-14T05:28:14;3.70;49.60
16402;DHT22;8310;44.626;11.176;2023-02-14T05:30:44;3.70;49.50
16402;DHT22;8310;44.626;11.176;2023-02-14T05:33:11;3.70;49.60
16402;DHT22;8310;44.626;11.176;2023-02-14T05:35:39;3.70;49.50
16402;DHT22;8310;44.626;11.176;2023-02-14T05:38:06;3.70;49.50
16402;DHT22;8310;44.626;11.176;2023-02-14T05:40:34;3.70;49.50
16402;DHT22;8310;44.626;11.176;2023-02-14T05:43:02;3.70;49.50
16402;DHT22;8310;44.626;11.176;2023-02-14T05:45:29;3.70;49.50
16402;DHT22;8310;44.626;11.176;2023-02-14T05:47:59;3.70;49.90
16402;DHT22;8310;44.626;11.176;2023-02-14T05:50:26;3.60;50.60
16402;DHT22;8310;44.626;11.176;2023-02-14T05:52:55;3.50;51.70
16402;DHT22;8310;44.626;11.176;2023-02-14T05:55:23;3.40;50.30
16402;DHT22;8310;44.626;11.176;2023-02-14T05:57:50;3.30;49.70
16402;DHT22;8310;44.626;11.176;2023-02-14T06:00:19;3.30;49.60
16402;DHT22;8310;44.626;11.176;2023-02-14T06:02:48;3.30;49.60
16402;DHT22;8310;44.626;11.176;2023-02-14T06:05:17;3.30;49.70
16402;DHT22;8310;44.626;11.176;2023-02-14T06:07:45;3.30;49.70
16402;DHT22;8310;44.626;11.176;2023-02-14T06:10:16;3.40;49.70
16402;DHT22;8310;44.626;11.176;2023-02-14T06:12:43;3.40;49.90
16402;DHT22;8310;44.626;11.176;2023-02-14T06:15:11;3.30;52.90
16402;DHT22;8310;44.626;11.176;2023-02-14T06:17:39;3.30;53.20
16402;DHT22;8310;44.626;11.176;2023-02-14T06:20:07;3.30;54.50
16402;DHT22;8310;44.626;11.176;2023-02-14T06:22:37;3.20;56.20
16402;DHT22;8310;44.626;11.176;2023-02-14T06:25:05;3.20;55.30
16402;DHT22;8310;44.626;11.176;2023-02-14T06:27:33;3.10;52.00
16402;DHT22;8310;44.626;11.176;2023-02-14T06:30:00;3.10;52.00
16402;DHT22;8310;44.626;11.176;2023-02-14T06:32:28;3.10;52.50
16402;DHT22;8310;44.626;11.176;2023-02-14T06:34:55;3.20;52.40
16402;DHT22;8310;44.626;11.176;2023-02-14T06:37:23;3.40;51.90
16402;DHT22;8310;44.626;11.176;2023-02-14T06:39:52;3.60;52.10
16402;DHT22;8310;44.626;11.176;2023-02-14T06:42:20;3.90;52.60
16402;DHT22;8310;44.626;11.176;2023-02-14T06:44:47;4.20;53.20
16402;DHT22;8310;44.626;11.176;2023-02-14T06:47:15;4.60;53.80
16402;DHT22;8310;44.626;11.176;2023-02-14T06:49:43;5.00;54.30
16402;DHT22;8310;44.626;11.176;2023-02-14T06:52:10;5.40;54.80
16402;DHT22;8310;44.626;11.176;2023-02-14T06:54:38;5.80;55.20
16402;DHT22;8310;44.626;11.176;2023-02-14T06:57:07;6.30;55.70
16402;DHT22;8310;44.626;11.176;2023-02-14T06:59:35;6.70;56.30
16402;DHT22;8310;44.626;11.176;2023-02-14T07:02:03;7.10;56.70
16402;DHT22;8310;44.626;11.176;2023-02-14T07:04:30;7.50;57.30
16402;DHT22;8310;44.626;11.176;2023-02-14T07:06:58;7.90;57.70
16402;DHT22;8310;44.626;11.176;2023-02-14T07:09:25;8.30;58.30
16402;DHT22;8310;44.626;11.176;2023-02-14T07:11:52;8.70;58.70
16402;DHT22;8310;44.626;11.176;2023-02-14T07:14:22;9.00;58.40
16402;DHT22;8310;44.626;11.176;2023-02-14T07:16:49;9.30;59.00
16402;DHT22;8310;44.626;11.176;2023-02-14T07:19:16;9.60;59.60
16402;DHT22;8310;44.626;11.176;2023-02-14T07:21:44;10.00;60.50
16402;DHT22;8310;44.626;11.176;2023-02-14T07:24:11;10.40;60.20
16402;DHT22;8310;44.626;11.176;2023-02-14T07:26:39;10.60;60.20
16402;DHT22;8310;44.626;11.176;2023-02-14T07:29:06;10.90;60.50
16402;DHT22;8310;44.626;11.176;2023-02-14T07:31:35;11.10;60.40
16402;DHT22;8310;44.626;11.176;2023-02-14T07:34:03;11.40;60.40
16402;DHT22;8310;44.626;11.176;2023-02-14T07:36:30;11.60;60.50
16402;DHT22;8310;44.626;11.176;2023-02-14T07:38:58;11.80;60.20
16402;DHT22;8310;44.626;11.176;2023-02-14T07:41:25;12.00;58.20
16402;DHT22;8310;44.626;11.176;2023-02-14T07:43:53;12.10;57.20
16402;DHT22;8310;44.626;11.176;2023-02-14T07:46:20;12.20;56.50
16402;DHT22;8310;44.626;11.176;2023-02-14T07:48:49;12.20;57.60
16402;DHT22;8310;44.626;11.176;2023-02-14T07:51:18;12.30;57.40
16402;DHT22;8310;44.626;11.176;2023-02-14T07:53:45;12.40;55.90
16402;DHT22;8310;44.626;11.176;2023-02-14T07:56:13;12.40;56.20
16402;DHT22;8310;44.626;11.176;2023-02-14T07:58:40;12.40;56.10
16402;DHT22;8310;44.626;11.176;2023-02-14T08:01:08;12.40;54.90
16402;DHT22;8310;44.626;11.176;2023-02-14T08:03:35;12.40;56.90
16402;DHT22;8310;44.626;11.176;2023-02-14T08:06:04;12.50;58.30
16402;DHT22;8310;44.626;11.176;2023-02-14T08:08:32;12.80;58.90
16402;DHT22;8310;44.626;11.176;2023-02-14T08:11:00;13.00;57.50
16402;DHT22;8310;44.626;11.176;2023-02-14T08:13:27;13.30;56.30
16402;DHT22;8310;44.626;11.176;2023-02-14T08:15:55;13.40;56.00
16402;DHT22;8310;44.626;11.176;2023-02-14T08:18:35;13.50;55.90
16402;DHT22;8310;44.626;11.176;2023-02-14T08:21:05;13.50;55.30
16402;DHT22;8310;44.626;11.176;2023-02-14T08:23:34;13.40;54.40
16402;DHT22;8310;44.626;11.176;2023-02-14T08:26:02;13.20;53.90
16402;DHT22;8310;44.626;11.176;2023-02-14T08:28:29;12.90;53.90
16402;DHT22;8310;44.626;11.176;2023-02-14T08:30:57;12.50;54.30
16402;DHT22;8310;44.626;11.176;2023-02-14T08:33:25;12.20;54.80
16402;DHT22;8310;44.626;11.176;2023-02-14T08:35:52;11.90;55.50
16402;DHT22;8310;44.626;11.176;2023-02-14T08:38:21;11.70;55.30
16402;DHT22;8310;44.626;11.176;2023-02-14T08:40:49;11.70;55.30
16402;DHT22;8310;44.626;11.176;2023-02-14T08:43:16;11.70;55.10
16402;DHT22;8310;44.626;11.176;2023-02-14T08:45:44;11.70;55.10
16402;DHT22;8310;44.626;11.176;2023-02-14T08:48:12;11.70;54.80
16402;DHT22;8310;44.626;11.176;2023-02-14T08:50:39;11.80;55.00
16402;DHT22;8310;44.626;11.176;2023-02-14T08:53:07;11.80;55.60
16402;DHT22;8310;44.626;11.176;2023-02-14T08:55:37;11.90;55.00
16402;DHT22;8310;44.626;11.176;2023-02-14T08:58:05;12.00;55.20
16402;DHT22;8310;44.626;11.176;2023-02-14T09:00:33;12.10;54.80
16402;DHT22;8310;44.626;11.176;2023-02-14T09:03:00;12.20;55.70
16402;DHT22;8310;44.626;11.176;2023-02-14T09:05:28;12.20;55.20
16402;DHT22;8310;44.626;11.176;2023-02-14T09:07:56;12.30;54.90
16402;DHT22;8310;44.626;11.176;2023-02-14T09:10:24;12.40;55.40
16402;DHT22;8310;44.626;11.176;2023-02-14T09:12:53;12.50;54.80
16402;DHT22;8310;44.626;11.176;2023-02-14T09:15:20;12.60;54.60
16402;DHT22;8310;44.626;11.176;2023-02-14T09:17:47;12.60;54.40
16402;DHT22;8310;44.626;11.176;2023-02-14T09:20:15;12.70;54.60
16402;DHT22;8310;44.626;11.176;2023-02-14T09:22:43;12.80;55.00
16402;DHT22;8310;44.626;11.176;2023-02-14T09:25:10;12.90;56.10
16402;DHT22;8310;44.626;11.176;2023-02-14T09:27:38;12.90;54.80
16402;DHT22;8310;44.626;11.176;2023-02-14T09:30:10;13.00;55.10
16402;DHT22;8310;44.626;11.176;2023-02-14T09:32:38;13.10;54.80
16402;DHT22;8310;44.626;11.176;2023-02-14T09:35:06;13.20;54.70
16402;DHT22;8310;44.626;11.176;2023-02-14T09:37:51;13.30;54.70
16402;DHT22;8310;44.626;11.176;2023-02-14T09:40:18;13.40;54.90
16402;DHT22;8310;44.626;11.176;2023-02-14T09:42:58;13.40;54.50
16402;DHT22;8310;44.626;11.176;2023-02-14T09:45:30;13.50;54.70
16402;DHT22;8310;44.626;11.176;2023-02-14T09:48:02;13.60;54.70
16402;DHT22;8310;44.626;11.176;2023-02-14T09:50:36;13.80;54.80
16402;DHT22;8310;44.626;11.176;2023-02-14T09:53:15;13.90;54.70
16402;DHT22;8310;44.626;11.176;2023-02-14T09:55:51;14.00;54.80
16402;DHT22;8310;44.626;11.176;2023-02-14T09:58:22;14.10;54.60
16402;DHT22;8310;44.626;11.176;2023-02-14T10:00:58;14.20;54.40
16402;DHT22;8310;44.626;11.176;2023-02-14T10:03:57;14.30;54.60
16402;DHT22;8310;44.626;11.176;2023-02-14T10:06:39;14.40;54.50
16402;DHT22;8310;44.626;11.176;2023-02-14T10:09:17;14.50;54.60
16402;DHT22;8310;44.626;11.176;2023-02-14T10:11:47;14.50;54.00
16402;DHT22;8310;44.626;11.176;2023-02-14T10:14:17;14.60;54.20
16402;DHT22;8310;44.626;11.176;2023-02-14T10:16:51;14.70;54.10
16402;DHT22;8310;44.626;11.176;2023-02-14T10:19:23;14.70;54.30
16402;DHT22;8310;44.626;11.176;2023-02-14T10:21:54;14.80;54.40
16402;DHT22;8310;44.626;11.176;2023-02-14T10:24:26;14.90;54.60
16402;DHT22;8310;44.626;11.176;2023-02-14T10:26:57;15.10;54.50
16402;DHT22;8310;44.626;11.176;2023-02-14T10:29:27;15.20;54.30
16402;DHT22;8310;44.626;11.176;2023-02-14T10:31:58;15.30;54.50
16402;DHT22;8310;44.626;11.176;2023-02-14T10:34:32;15.30;54.50
16402;DHT22;8310;44.626;11.176;2023-02-14T10:37:21;15.40;54.30
16402;DHT22;8310;44.626;11.176;2023-02-14T10:40:14;15.50;54.30
16402;DHT22;8310;44.626;11.176;2023-02-14T10:42:55;15.60;53.40
16402;DHT22;8310;44.626;11.176;2023-02-14T10:45:29;15.70;52.30
16402;DHT22;8310;44.626;11.176;2023-02-14T10:48:09;15.70;53.90
16402;DHT22;8310;44.626;11.176;2023-02-14T10:50:48;15.80;54.00
16402;DHT22;8310;44.626;11.176;2023-02-14T10:53:25;15.90;54.10
16402;DHT22;8310;44.626;11.176;2023-02-14T10:55:59;16.00;53.80
16402;DHT22;8310;44.626;11.176;2023-02-14T10:58:32;16.00;52.40
16402;DHT22;8310;44.626;11.176;2023-02-14T11:01:02;16.10;52.70
16402;DHT22;8310;44.626;11.176;2023-02-14T11:03:34;16.20;51.40
16402;DHT22;8310;44.626;11.176;2023-02-14T11:06:03;16.20;53.50
16402;DHT22;8310;44.626;11.176;2023-02-14T11:08:32;16.30;53.60
16402;DHT22;8310;44.626;11.176;2023-02-14T11:11:03;16.30;53.30
16402;DHT22;8310;44.626;11.176;2023-02-14T11:13:35;16.40;53.90
16402;DHT22;8310;44.626;11.176;2023-02-14T11:16:05;16.50;51.70
16402;DHT22;8310;44.626;11.176;2023-02-14T11:18:36;16.50;53.50
16402;DHT22;8310;44.626;11.176;2023-02-14T11:21:07;16.60;53.90
16402;DHT22;8310;44.626;11.176;2023-02-14T11:23:37;16.70;52.60
16402;DHT22;8310;44.626;11.176;2023-02-14T11:26:10;16.90;54.00
16402;DHT22;8310;44.626;11.176;2023-02-14T11:28:49;17.00;54.10
16402;DHT22;8310;44.626;11.176;2023-02-14T11:31:29;17.10;54.10
16402;DHT22;8310;44.626;11.176;2023-02-14T11:34:00;17.20;54.20
16402;DHT22;8310;44.626;11.176;2023-02-14T11:36:28;17.30;54.20
16402;DHT22;8310;44.626;11.176;2023-02-14T11:39:02;17.30;52.60
16402;DHT22;8310;44.626;11.176;2023-02-14T11:41:46;17.40;53.40
16402;DHT22;8310;44.626;11.176;2023-02-14T11:44:16;17.50;53.80
16402;DHT22;8310;44.626;11.176;2023-02-14T11:46:47;17.50;53.80
16402;DHT22;8310;44.626;11.176;2023-02-14T11:49:27;17.60;54.00
16402;DHT22;8310;44.626;11.176;2023-02-14T11:51:56;17.70;54.10
16402;DHT22;8310;44.626;11.176;2023-02-14T11:54:31;17.80;54.10
16402;DHT22;8310;44.626;11.176;2023-02-14T11:57:07;17.90;52.40
16402;DHT22;8310;44.626;11.176;2023-02-14T11:59:41;17.90;53.50
16402;DHT22;8310;44.626;11.176;2023-02-14T12:02:24;17.90;53.60
16402;DHT22;8310;44.626;11.176;2023-02-14T12:04:56;18.00;53.80
16402;DHT22;8310;44.626;11.176;2023-02-14T12:07:30;18.00;49.60
16402;DHT22;8310;44.626;11.176;2023-02-14T12:10:15;18.10;52.70
16402;DHT22;8310;44.626;11.176;2023-02-14T12:12:51;18.10;53.30
16402;DHT22;8310;44.626;11.176;2023-02-14T12:15:28;18.20;53.60
16402;DHT22;8310;44.626;11.176;2023-02-14T12:18:25;18.20;49.80
16402;DHT22;8310;44.626;11.176;2023-02-14T12:21:00;18.30;52.10
16402;DHT22;8310;44.626;11.176;2023-02-14T12:23:39;18.30;49.10
16402;DHT22;8310;44.626;11.176;2023-02-14T12:26:14;18.30;52.20
16402;DHT22;8310;44.626;11.176;2023-02-14T12:28:50;18.30;52.00
16402;DHT22;8310;44.626;11.176;2023-02-14T12:31:21;18.40;53.20
16402;DHT22;8310;44.626;11.176;2023-02-14T12:33:48;18.40;53.10
16402;DHT22;8310;44.626;11.176;2023-02-14T12:36:38;18.50;53.20
16402;DHT22;8310;44.626;11.176;2023-02-14T12:39:15;18.60;53.30
16402;DHT22;8310;44.626;11.176;2023-02-14T12:41:51;18.60;51.70
16402;DHT22;8310;44.626;11.176;2023-02-14T12:44:29;18.70;53.30
16402;DHT22;8310;44.626;11.176;2023-02-14T12:47:18;18.70;53.40
16402;DHT22;8310;44.626;11.176;2023-02-14T12:50:08;18.80;53.40
16402;DHT22;8310;44.626;11.176;2023-02-14T12:52:59;18.90;53.50
16402;DHT22;8310;44.626;11.176;2023-02-14T12:55:39;19.00;53.60
16402;DHT22;8310;44.626;11.176;2023-02-14T12:58:20;19.00;53.20
16402;DHT22;8310;44.626;11.176;2023-02-14T13:00:59;19.10;53.30
16402;DHT22;8310;44.626;11.176;2023-02-14T13:03:49;19.10;51.10
16402;DHT22;8310;44.626;11.176;2023-02-14T13:06:29;19.10;52.80
16402;DHT22;8310;44.626;11.176;2023-02-14T13:09:12;19.10;51.10
16402;DHT22;8310;44.626;11.176;2023-02-14T13:11:51;19.10;52.90
16402;DHT22;8310;44.626;11.176;2023-02-14T13:14:35;19.20;52.60
16402;DHT22;8310;44.626;11.176;2023-02-14T13:17:13;19.20;48.20
16402;DHT22;8310;44.626;11.176;2023-02-14T13:19:50;19.10;51.90
16402;DHT22;8310;44.626;11.176;2023-02-14T13:22:23;19.10;52.30
16402;DHT22;8310;44.626;11.176;2023-02-14T13:24:56;19.20;53.00
16402;DHT22;8310;44.626;11.176;2023-02-14T13:27:28;19.20;52.80
16402;DHT22;8310;44.626;11.176;2023-02-14T13:29:59;19.30;52.50
16402;DHT22;8310;44.626;11.176;2023-02-14T13:32:30;19.30;52.00
16402;DHT22;8310;44.626;11.176;2023-02-14T13:34:59;19.30;52.50
16402;DHT22;8310;44.626;11.176;2023-02-14T13:37:28;19.30;52.90
16402;DHT22;8310;44.626;11.176;2023-02-14T13:40:00;19.40;52.90
16402;DHT22;8310;44.626;11.176;2023-02-14T13:42:49;19.40;53.00
16402;DHT22;8310;44.626;11.176;2023-02-14T13:45:52;19.40;52.60
16402;DHT22;8310;44.626;11.176;2023-02-14T13:48:22;19.50;53.00
16402;DHT22;8310;44.626;11.176;2023-02-14T13:50:53;19.50;52.40
16402;DHT22;8310;44.626;11.176;2023-02-14T13:53:33;19.50;50.20
16402;DHT22;8310;44.626;11.176;2023-02-14T13:56:41;19.50;49.40
16402;DHT22;8310;44.626;11.176;2023-02-14T13:59:24;19.40;52.00
16402;DHT22;8310;44.626;11.176;2023-02-14T14:01:52;19.50;52.60
16402;DHT22;8310;44.626;11.176;2023-02-14T14:04:35;19.50;48.80
16402;DHT22;8310;44.626;11.176;2023-02-14T14:07:43;19.50;52.10
16402;DHT22;8310;44.626;11.176;2023-02-14T14:10:11;19.50;52.50
16402;DHT22;8310;44.626;11.176;2023-02-14T14:12:44;19.60;52.60
16402;DHT22;8310;44.626;11.176;2023-02-14T14:15:16;19.70;52.80
16402;DHT22;8310;44.626;11.176;2023-02-14T14:17:46;19.70;52.90
16402;DHT22;8310;44.626;11.176;2023-02-14T14:20:45;19.80;50.70
16402;DHT22;8310;44.626;11.176;2023-02-14T14:23:37;19.80;48.80
16402;DHT22;8310;44.626;11.176;2023-02-14T14:29:21;19.80;52.00
16402;DHT22;8310;44.626;11.176;2023-02-14T14:31:51;19.80;51.90
16402;DHT22;8310;44.626;11.176;2023-02-14T14:34:23;19.80;52.30
16402;DHT22;8310;44.626;11.176;2023-02-14T14:37:00;19.90;52.30
16402;DHT22;8310;44.626;11.176;2023-02-14T14:39:30;19.90;51.10
16402;DHT22;8310;44.626;11.176;2023-02-14T14:42:05;19.90;51.90
16402;DHT22;8310;44.626;11.176;2023-02-14T14:44:35;19.90;51.70
16402;DHT22;8310;44.626;11.176;2023-02-14T14:47:12;20.00;52.30
16402;DHT22;8310;44.626;11.176;2023-02-14T14:49:42;20.00;52.50
16402;DHT22;8310;44.626;11.176;2023-02-14T14:52:22;20.10;52.00
16402;DHT22;8310;44.626;11.176;2023-02-14T14:54:50;20.20;51.20
16402;DHT22;8310;44.626;11.176;2023-02-14T14:57:18;20.20;49.00
16402;DHT22;8310;44.626;11.176;2023-02-14T14:59:47;20.30;51.80
16402;DHT22;8310;44.626;11.176;2023-02-14T15:02:21;20.40;51.80
16402;DHT22;8310;44.626;11.176;2023-02-14T15:04:49;20.50;51.80
16402;DHT22;8310;44.626;11.176;2023-02-14T15:07:18;20.60;51.90
16402;DHT22;8310;44.626;11.176;2023-02-14T15:09:45;20.70;51.60
16402;DHT22;8310;44.626;11.176;2023-02-14T15:12:18;20.70;52.10
16402;DHT22;8310;44.626;11.176;2023-02-14T15:15:05;20.90;52.30
16402;DHT22;8310;44.626;11.176;2023-02-14T15:17:36;21.10;52.30
16402;DHT22;8310;44.626;11.176;2023-02-14T15:20:07;21.20;52.20
16402;DHT22;8310;44.626;11.176;2023-02-14T15:22:41;21.30;52.10
16402;DHT22;8310;44.626;11.176;2023-02-14T15:25:11;21.40;52.30
16402;DHT22;8310;44.626;11.176;2023-02-14T15:27:40;21.50;52.40
16402;DHT22;8310;44.626;11.176;2023-02-14T15:30:21;21.70;51.50
16402;DHT22;8310;44.626;11.176;2023-02-14T15:32:50;21.80;52.80
16402;DHT22;8310;44.626;11.176;2023-02-14T15:35:24;21.90;52.30
16402;DHT22;8310;44.626;11.176;2023-02-14T15:37:53;21.90;52.30
16402;DHT22;8310;44.626;11.176;2023-02-14T15:40:24;22.00;52.30
16402;DHT22;8310;44.626;11.176;2023-02-14T15:42:52;22.10;52.20
16402;DHT22;8310;44.626;11.176;2023-02-14T15:45:29;22.10;52.00
16402;DHT22;8310;44.626;11.176;2023-02-14T15:47:58;22.10;52.10
16402;DHT22;8310;44.626;11.176;2023-02-14T15:50:29;22.00;52.10
16402;DHT22;8310;44.626;11.176;2023-02-14T15:53:02;22.10;52.20
16402;DHT22;8310;44.626;11.176;2023-02-14T15:55:30;22.00;52.10
16402;DHT22;8310;44.626;11.176;2023-02-14T15:58:02;22.10;52.20
16402;DHT22;8310;44.626;11.176;2023-02-14T16:00:31;22.10;52.20
16402;DHT22;8310;44.626;11.176;2023-02-14T16:03:02;22.10;52.10
16402;DHT22;8310;44.626;11.176;2023-02-14T16:05:31;22.00;52.10
16402;DHT22;8310;44.626;11.176;2023-02-14T16:08:00;22.00;52.60
16402;DHT22;8310;44.626;11.176;2023-02-14T16:10:31;21.90;52.00
16402;DHT22;8310;44.626;11.176;2023-02-14T16:13:01;21.80;51.90
16402;DHT22;8310;44.626;11.176;2023-02-14T16:15:33;21.70;51.80
16402;DHT22;8310;44.626;11.176;2023-02-14T16:18:02;21.60;51.80
16402;DHT22;8310;44.626;11.176;2023-02-14T16:20:39;21.40;51.70
16402;DHT22;8310;44.626;11.176;2023-02-14T16:23:24;21.20;51.60
16402;DHT22;8310;44.626;11.176;2023-02-14T16:25:52;21.00;51.50
16402;DHT22;8310;44.626;11.176;2023-02-14T16:28:21;20.80;51.30
16402;DHT22;8310;44.626;11.176;2023-02-14T16:30:55;20.60;51.20
16402;DHT22;8310;44.626;11.176;2023-02-14T16:33:25;20.30;51.10
16402;DHT22;8310;44.626;11.176;2023-02-14T16:35:53;20.10;51.10
16402;DHT22;8310;44.626;11.176;2023-02-14T16:38:22;19.90;51.10
16402;DHT22;8310;44.626;11.176;2023-02-14T16:40:51;19.60;51.00
16402;DHT22;8310;44.626;11.176;2023-02-14T16:43:20;19.40;51.00
16402;DHT22;8310;44.626;11.176;2023-02-14T16:45:47;19.20;51.50
16402;DHT22;8310;44.626;11.176;2023-02-14T16:48:16;19.00;50.90
16402;DHT22;8310;44.626;11.176;2023-02-14T16:50:44;18.80;50.90
16402;DHT22;8310;44.626;11.176;2023-02-14T16:53:22;18.60;50.90
16402;DHT22;8310;44.626;11.176;2023-02-14T16:55:51;18.50;50.90
16402;DHT22;8310;44.626;11.176;2023-02-14T16:58:22;18.30;50.90
16402;DHT22;8310;44.626;11.176;2023-02-14T17:00:52;18.20;50.90
16402;DHT22;8310;44.626;11.176;2023-02-14T17:03:21;18.00;50.90
16402;DHT22;8310;44.626;11.176;2023-02-14T17:05:49;17.90;50.80
16402;DHT22;8310;44.626;11.176;2023-02-14T17:08:16;17.70;50.70
16402;DHT22;8310;44.626;11.176;2023-02-14T17:10:45;17.60;50.70
16402;DHT22;8310;44.626;11.176;2023-02-14T17:13:15;17.40;50.60
16402;DHT22;8310;44.626;11.176;2023-02-14T17:15:44;17.30;50.60
16402;DHT22;8310;44.626;11.176;2023-02-14T17:18:14;17.10;50.60
16402;DHT22;8310;44.626;11.176;2023-02-14T17:20:43;17.00;50.60
16402;DHT22;8310;44.626;11.176;2023-02-14T17:23:11;16.80;50.50
16402;DHT22;8310;44.626;11.176;2023-02-14T17:25:38;16.70;50.50
16402;DHT22;8310;44.626;11.176;2023-02-14T17:28:06;16.60;50.50
16402;DHT22;8310;44.626;11.176;2023-02-14T17:30:34;16.40;50.40
16402;DHT22;8310;44.626;11.176;2023-02-14T17:33:02;16.30;50.50
16402;DHT22;8310;44.626;11.176;2023-02-14T17:35:29;16.20;50.40
16402;DHT22;8310;44.626;11.176;2023-02-14T17:37:58;16.10;50.50
16402;DHT22;8310;44.626;11.176;2023-02-14T17:40:26;16.00;50.50
16402;DHT22;8310;44.626;11.176;2023-02-14T17:42:53;15.90;50.50
16402;DHT22;8310;44.626;11.176;2023-02-14T17:45:22;15.80;50.50
16402;DHT22;8310;44.626;11.176;2023-02-14T17:47:49;15.70;50.50
16402;DHT22;8310;44.626;11.176;2023-02-14T17:50:17;15.60;50.40
16402;DHT22;8310;44.626;11.176;2023-02-14T17:52:45;15.50;50.30
16402;DHT22;8310;44.626;11.176;2023-02-14T17:55:14;15.40;50.30
16402;DHT22;8310;44.626;11.176;2023-02-14T17:57:42;15.40;50.40
16402;DHT22;8310;44.626;11.176;2023-02-14T18:00:10;15.30;50.40
16402;DHT22;8310;44.626;11.176;2023-02-14T18:02:38;15.20;50.30
16402;DHT22;8310;44.626;11.176;2023-02-14T18:05:07;15.10;50.20
16402;DHT22;8310;44.626;11.176;2023-02-14T18:07:36;15.00;50.20
16402;DHT22;8310;44.626;11.176;2023-02-14T18:10:04;14.90;50.10
16402;DHT22;8310;44.626;11.176;2023-02-14T18:12:33;14.80;50.20
16402;DHT22;8310;44.626;11.176;2023-02-14T18:15:01;14.70;49.90
16402;DHT22;8310;44.626;11.176;2023-02-14T18:17:28;14.60;50.30
16402;DHT22;8310;44.626;11.176;2023-02-14T18:19:56;14.40;49.70
16402;DHT22;8310;44.626;11.176;2023-02-14T18:22:23;14.30;49.90
16402;DHT22;8310;44.626;11.176;2023-02-14T18:24:52;14.30;50.00
16402;DHT22;8310;44.626;11.176;2023-02-14T18:27:20;14.20;50.00
16402;DHT22;8310;44.626;11.176;2023-02-14T18:29:49;14.20;50.10
16402;DHT22;8310;44.626;11.176;2023-02-14T18:32:16;14.10;50.00
16402;DHT22;8310;44.626;11.176;2023-02-14T18:34:43;14.00;49.90
16402;DHT22;8310;44.626;11.176;2023-02-14T18:37:12;13.90;49.80
16402;DHT22;8310;44.626;11.176;2023-02-14T18:39:40;13.80;49.80
16402;DHT22;8310;44.626;11.176;2023-02-14T18:42:07;13.70;49.80
16402;DHT22;8310;44.626;11.176;2023-02-14T18:44:35;13.60;49.80
16402;DHT22;8310;44.626;11.176;2023-02-14T18:47:04;13.50;49.90
16402;DHT22;8310;44.626;11.176;2023-02-14T18:49:32;13.50;49.90
16402;DHT22;8310;44.626;11.176;2023-02-14T18:52:01;13.40;49.80
16402;DHT22;8310;44.626;11.176;2023-02-14T18:54:29;13.30;49.80
16402;DHT22;8310;44.626;11.176;2023-02-14T18:56:57;13.20;49.70
16402;DHT22;8310;44.626;11.176;2023-02-14T18:59:24;13.00;49.70
16402;DHT22;8310;44.626;11.176;2023-02-14T19:01:52;12.90;49.60
16402;DHT22;8310;44.626;11.176;2023-02-14T19:04:21;12.80;49.60
16402;DHT22;8310;44.626;11.176;2023-02-14T19:06:48;12.70;49.60
16402;DHT22;8310;44.626;11.176;2023-02-14T19:09:15;12.60;49.60
16402;DHT22;8310;44.626;11.176;2023-02-14T19:11:43;12.40;49.50
16402;DHT22;8310;44.626;11.176;2023-02-14T19:14:12;12.30;49.80
16402;DHT22;8310;44.626;11.176;2023-02-14T19:16:41;12.10;49.50
16402;DHT22;8310;44.626;11.176;2023-02-14T19:19:15;11.90;49.50
16402;DHT22;8310;44.626;11.176;2023-02-14T19:21:44;11.70;49.30
16402;DHT22;8310;44.626;11.176;2023-02-14T19:24:13;11.60;49.30
16402;DHT22;8310;44.626;11.176;2023-02-14T19:26:41;11.50;49.40
16402;DHT22;8310;44.626;11.176;2023-02-14T19:29:12;11.40;49.40
16402;DHT22;8310;44.626;11.176;2023-02-14T19:31:41;11.40;49.50
16402;DHT22;8310;44.626;11.176;2023-02-14T19:34:14;11.40;49.60
16402;DHT22;8310;44.626;11.176;2023-02-14T19:36:45;11.40;49.70